Time;durP1;ratioP1;P1;durP2;ratioP2;P2;SDS_P1;SDS_P2;PMS_P1;PMS_P2;Temp;Humidity;BMP_temperature;BMP_pressure;BME280_temperature;BME280_humidity;BME280_pressure;Samples;Min_cycle;Max_cycle;Signal;HPM_P1;HPM_P2
2022/07/04 00:00:02;;;;;;;;;;;14.10;99.90;;;;;;5004769;28;20056;-67
2022/07/04 00:02:27;;;;;;;;;;;14.10;99.90;;;;;;5002975;28;20271;-65
2022/07/04 00:04:53;;;;;;;;;;;14.10;99.90;;;;;;5007410;28;19913;-66
2022/07/04 00:07:19;;;;;;;;;;;14.10;99.90;;;;;;5004887;28;20008;-66
2022/07/04 00:09:44;;;;;;;;;;;14.10;99.90;;;;;;5003082;28;20021;-65
2022/07/04 00:12:10;;;;;;;;;;;14.00;99.90;;;;;;5006594;28;20447;-65
2022/07/04 00:14:35;;;;;;;;;;;13.90;99.90;;;;;;5003512;28;20303;-65
2022/07/04 00:17:01;;;;;;;;;;;13.80;99.90;;;;;;5006542;28;21821;-67
2022/07/04 00:19:27;;;;;;;;;;;13.80;99.90;;;;;;5004628;28;19922;-66
2022/07/04 00:21:52;;;;;;;;;;;13.70;99.90;;;;;;5004545;28;19913;-66
2022/07/04 00:24:18;;;;;;;;;;;13.70;99.90;;;;;;5003180;28;19984;-65
2022/07/04 00:26:43;;;;;;;;;;;13.70;99.90;;;;;;5018109;28;19914;-66
2022/07/04 00:29:09;;;;;;;;;;;13.60;99.90;;;;;;5006979;28;19926;-66
2022/07/04 00:31:35;;;;;;;;;;;13.60;99.90;;;;;;5001770;28;19914;-66
2022/07/04 00:34:01;;;;;;;;;;;13.50;99.90;;;;;;5002526;28;19917;-65
2022/07/04 00:36:26;;;;;;;;;;;13.40;99.90;;;;;;5003003;28;19965;-65
2022/07/04 00:38:52;;;;;;;;;;;13.40;99.90;;;;;;4988039;28;19937;-65
2022/07/04 00:41:17;;;;;;;;;;;13.40;99.90;;;;;;5004510;28;20314;-66
2022/07/04 00:43:43;;;;;;;;;;;13.40;99.90;;;;;;5001449;28;20734;-65
2022/07/04 00:46:08;;;;;;;;;;;13.40;99.90;;;;;;5006738;28;20028;-65
2022/07/04 00:48:37;;;;;;;;;;;13.40;99.90;;;;;;5002756;28;20366;-65
2022/07/04 00:51:02;;;;;;;;;;;13.40;99.90;;;;;;5017740;28;20279;-66
2022/07/04 00:53:28;;;;;;;;;;;13.40;99.90;;;;;;5004710;28;19918;-64
2022/07/04 00:55:54;;;;;;;;;;;13.40;99.90;;;;;;5005040;28;20302;-65
2022/07/04 00:58:20;;;;;;;;;;;13.30;99.90;;;;;;5002013;28;19927;-67
2022/07/04 01:00:45;;;;;;;;;;;13.30;99.90;;;;;;5006151;28;20279;-65
2022/07/04 01:03:11;;;;;;;;;;;13.20;99.90;;;;;;5004714;28;19921;-66
2022/07/04 01:05:37;;;;;;;;;;;13.20;99.90;;;;;;5005882;28;20229;-65
2022/07/04 01:08:04;;;;;;;;;;;13.20;99.90;;;;;;5004731;28;19925;-66
2022/07/04 01:10:30;;;;;;;;;;;13.10;99.90;;;;;;5002158;28;21809;-66
2022/07/04 01:12:55;;;;;;;;;;;12.60;99.90;;;;;;5004558;28;20338;-66
2022/07/04 01:15:21;;;;;;;;;;;12.30;99.90;;;;;;5000988;28;20051;-65
2022/07/04 01:17:49;;;;;;;;;;;12.10;99.90;;;;;;5001918;28;19917;-65
2022/07/04 01:20:15;;;;;;;;;;;12.00;99.90;;;;;;5000366;28;19967;-65
2022/07/04 01:22:41;;;;;;;;;;;11.80;99.90;;;;;;5004155;28;19957;-65
2022/07/04 01:25:08;;;;;;;;;;;11.80;99.90;;;;;;4982819;28;20271;-65
2022/07/04 01:27:33;;;;;;;;;;;11.70;99.90;;;;;;5004808;28;20324;-66
2022/07/04 01:29:59;;;;;;;;;;;11.80;99.90;;;;;;5003807;28;20023;-65
2022/07/04 01:32:25;;;;;;;;;;;11.80;99.90;;;;;;5004168;28;20378;-65
2022/07/04 01:34:50;;;;;;;;;;;11.80;99.90;;;;;;5004859;28;19968;-66
2022/07/04 01:37:16;;;;;;;;;;;11.80;99.90;;;;;;5002905;28;19918;-66
2022/07/04 01:39:42;;;;;;;;;;;11.80;99.90;;;;;;5003522;28;19913;-64
2022/07/04 01:42:07;;;;;;;;;;;11.90;99.90;;;;;;5003635;28;20183;-66
2022/07/04 01:44:33;;;;;;;;;;;11.80;99.90;;;;;;5001954;28;20371;-66
2022/07/04 01:46:59;;;;;;;;;;;11.80;99.90;;;;;;5005973;28;19914;-66
2022/07/04 01:49:24;;;;;;;;;;;11.90;99.90;;;;;;5005534;28;20417;-65
2022/07/04 01:51:50;;;;;;;;;;;12.10;99.90;;;;;;4999703;28;19976;-66
2022/07/04 01:54:16;;;;;;;;;;;12.20;99.90;;;;;;4997464;28;19918;-65
2022/07/04 01:56:42;;;;;;;;;;;12.30;99.90;;;;;;4996554;28;19918;-65
2022/07/04 01:59:07;;;;;;;;;;;12.50;99.90;;;;;;4998678;28;19925;-66
2022/07/04 02:01:33;;;;;;;;;;;12.30;99.90;;;;;;4996057;28;19913;-66
2022/07/04 02:03:59;;;;;;;;;;;11.90;99.90;;;;;;4999052;28;20111;-65
2022/07/04 02:06:25;;;;;;;;;;;11.60;99.90;;;;;;5001925;28;20000;-65
2022/07/04 02:14:19;;;;;;;;;;;11.50;99.90;;;;;;4999303;28;19956;-66
2022/07/04 02:16:45;;;;;;;;;;;11.50;99.90;;;;;;4999099;28;19960;-66
2022/07/04 02:19:10;;;;;;;;;;;11.40;99.90;;;;;;4986857;28;19918;-66
2022/07/04 02:21:36;;;;;;;;;;;11.40;99.90;;;;;;5003697;28;19917;-65
2022/07/04 02:24:02;;;;;;;;;;;11.40;99.90;;;;;;5003540;28;19920;-66
2022/07/04 02:26:27;;;;;;;;;;;11.50;99.90;;;;;;5005508;28;19913;-66
2022/07/04 02:28:53;;;;;;;;;;;11.50;99.90;;;;;;5001654;28;20016;-65
2022/07/04 02:31:18;;;;;;;;;;;11.40;99.90;;;;;;4999814;28;19928;-67
2022/07/04 02:33:44;;;;;;;;;;;11.40;99.90;;;;;;5001355;28;19918;-65
2022/07/04 02:36:09;;;;;;;;;;;11.40;99.90;;;;;;5000468;28;20056;-65
2022/07/04 02:38:35;;;;;;;;;;;11.50;99.90;;;;;;4999235;28;20308;-65
2022/07/04 02:41:01;;;;;;;;;;;11.70;99.90;;;;;;5003184;28;19925;-66
2022/07/04 02:43:26;;;;;;;;;;;11.60;99.90;;;;;;4998816;28;19914;-66
2022/07/04 02:45:52;;;;;;;;;;;11.70;99.90;;;;;;4998703;28;20103;-66
2022/07/04 02:48:17;;;;;;;;;;;11.80;99.90;;;;;;4998572;28;19929;-66
2022/07/04 02:50:43;;;;;;;;;;;12.00;99.90;;;;;;4998810;28;19913;-65
2022/07/04 02:53:08;;;;;;;;;;;12.30;99.90;;;;;;4999281;28;19922;-65
2022/07/04 02:55:34;;;;;;;;;;;12.40;99.90;;;;;;4998975;28;19922;-65
2022/07/04 02:58:00;;;;;;;;;;;12.60;99.90;;;;;;4999032;28;19972;-65
2022/07/04 03:00:25;;;;;;;;;;;12.60;99.90;;;;;;5001554;28;21405;-65
2022/07/04 03:02:51;;;;;;;;;;;12.70;99.90;;;;;;4997104;28;20006;-65
2022/07/04 03:05:17;;;;;;;;;;;12.70;99.90;;;;;;5000040;28;19925;-65
2022/07/04 03:07:42;;;;;;;;;;;12.70;99.90;;;;;;4998784;28;20566;-66
2022/07/04 03:10:08;;;;;;;;;;;12.60;99.90;;;;;;5001235;28;19922;-65
2022/07/04 03:12:33;;;;;;;;;;;12.40;99.90;;;;;;5007461;28;19913;-65
2022/07/04 03:14:59;;;;;;;;;;;12.50;99.90;;;;;;5005211;28;19956;-66
2022/07/04 03:17:25;;;;;;;;;;;12.60;99.90;;;;;;5004275;28;19932;-64
2022/07/04 03:19:51;;;;;;;;;;;12.70;99.90;;;;;;5005774;28;19975;-65
2022/07/04 03:22:16;;;;;;;;;;;12.70;99.90;;;;;;5007719;28;19964;-65
2022/07/04 03:24:42;;;;;;;;;;;12.80;99.90;;;;;;5006340;28;19929;-65
2022/07/04 03:27:08;;;;;;;;;;;12.80;99.90;;;;;;5006650;28;19959;-65
2022/07/04 03:29:33;;;;;;;;;;;12.90;99.90;;;;;;5003839;28;20299;-65
2022/07/04 03:31:59;;;;;;;;;;;12.90;99.90;;;;;;5004395;28;20001;-65
2022/07/04 03:34:24;;;;;;;;;;;13.00;99.90;;;;;;5008454;28;19914;-64
2022/07/04 03:36:50;;;;;;;;;;;13.00;99.90;;;;;;5005057;28;20012;-64
2022/07/04 03:39:16;;;;;;;;;;;13.00;99.90;;;;;;5004644;28;20353;-65
2022/07/04 03:41:41;;;;;;;;;;;13.10;99.90;;;;;;5005504;28;20397;-66
2022/07/04 03:44:07;;;;;;;;;;;13.10;99.90;;;;;;5004294;28;19913;-64
2022/07/04 03:46:32;;;;;;;;;;;13.00;99.90;;;;;;5006095;28;19917;-64
2022/07/04 03:48:59;;;;;;;;;;;13.00;99.90;;;;;;5008681;28;19921;-65
2022/07/04 03:51:24;;;;;;;;;;;13.10;99.90;;;;;;4988426;28;19997;-64
2022/07/04 03:53:50;;;;;;;;;;;13.20;99.90;;;;;;5005533;28;19960;-65
2022/07/04 03:56:16;;;;;;;;;;;13.00;99.90;;;;;;4986602;28;19970;-66
2022/07/04 03:58:42;;;;;;;;;;;12.80;99.90;;;;;;5002751;28;19925;-65
2022/07/04 04:01:08;;;;;;;;;;;12.70;99.90;;;;;;4987195;28;19922;-65
2022/07/04 04:06:18;;;;;;;;;;;12.70;99.90;;;;;;5004727;28;20330;-65
2022/07/04 04:08:44;;;;;;;;;;;12.70;99.90;;;;;;5006385;28;19925;-64
2022/07/04 04:11:09;;;;;;;;;;;12.70;99.90;;;;;;5004245;28;20407;-65
2022/07/04 04:13:35;;;;;;;;;;;12.80;99.90;;;;;;5002212;28;20443;-65
2022/07/04 04:16:00;;;;;;;;;;;12.90;99.90;;;;;;5006028;28;19921;-65
2022/07/04 04:18:26;;;;;;;;;;;13.00;99.90;;;;;;5004752;28;20008;-65
2022/07/04 04:20:51;;;;;;;;;;;13.10;99.90;;;;;;5000025;28;20691;-66
2022/07/04 04:23:17;;;;;;;;;;;13.20;99.90;;;;;;5002702;28;20001;-64
2022/07/04 04:25:42;;;;;;;;;;;13.30;99.90;;;;;;5004770;28;19996;-65
2022/07/04 04:28:08;;;;;;;;;;;13.10;99.90;;;;;;5002637;28;19921;-65
2022/07/04 04:30:33;;;;;;;;;;;13.00;99.90;;;;;;5003252;28;19913;-65
2022/07/04 04:32:59;;;;;;;;;;;13.10;99.90;;;;;;5005695;28;19913;-67
2022/07/04 04:35:25;;;;;;;;;;;13.20;99.90;;;;;;5006796;28;19917;-65
2022/07/04 04:37:50;;;;;;;;;;;13.30;99.90;;;;;;5002645;28;19925;-64
2022/07/04 04:40:16;;;;;;;;;;;13.40;99.90;;;;;;4985261;28;19920;-69
2022/07/04 04:42:42;;;;;;;;;;;13.50;99.90;;;;;;5003087;28;19922;-65
2022/07/04 04:45:08;;;;;;;;;;;13.60;99.90;;;;;;5003714;28;19918;-64
2022/07/04 04:47:34;;;;;;;;;;;13.70;99.90;;;;;;5002919;28;19922;-65
2022/07/04 04:50:00;;;;;;;;;;;13.70;99.90;;;;;;5005670;28;19922;-64
2022/07/04 04:52:26;;;;;;;;;;;13.70;99.90;;;;;;5004744;28;19913;-65
2022/07/04 04:54:51;;;;;;;;;;;13.80;99.90;;;;;;5004290;28;20354;-65
2022/07/04 04:57:17;;;;;;;;;;;13.80;99.90;;;;;;5004855;28;20059;-65
2022/07/04 04:59:43;;;;;;;;;;;13.90;99.90;;;;;;4983770;28;19914;-65
2022/07/04 05:02:08;;;;;;;;;;;13.90;99.90;;;;;;5002418;28;19967;-66
2022/07/04 05:04:34;;;;;;;;;;;13.80;99.90;;;;;;5004786;28;19917;-64
2022/07/04 05:06:59;;;;;;;;;;;13.80;99.90;;;;;;5002058;28;19917;-65
2022/07/04 05:09:25;;;;;;;;;;;13.80;99.90;;;;;;5005245;28;20184;-64
2022/07/04 05:11:50;;;;;;;;;;;13.90;99.90;;;;;;4999067;28;20544;-65
2022/07/04 05:14:16;;;;;;;;;;;14.00;99.90;;;;;;5004737;28;19922;-65
2022/07/04 05:16:42;;;;;;;;;;;14.20;99.90;;;;;;5003112;28;20802;-64
2022/07/04 05:19:07;;;;;;;;;;;14.40;99.90;;;;;;4987890;28;19925;-65
2022/07/04 05:21:33;;;;;;;;;;;14.60;99.90;;;;;;5003330;28;19961;-64
2022/07/04 05:23:58;;;;;;;;;;;14.70;99.90;;;;;;5002443;28;20024;-65
2022/07/04 05:26:24;;;;;;;;;;;14.70;99.90;;;;;;5001839;28;20599;-64
2022/07/04 05:28:50;;;;;;;;;;;14.80;99.90;;;;;;5003232;28;19930;-65
2022/07/04 05:31:15;;;;;;;;;;;15.00;99.90;;;;;;5001157;28;19915;-65
2022/07/04 05:33:41;;;;;;;;;;;15.00;99.90;;;;;;5005816;28;19996;-65
2022/07/04 05:36:06;;;;;;;;;;;15.00;99.90;;;;;;4984109;28;19956;-65
2022/07/04 05:38:32;;;;;;;;;;;15.00;99.90;;;;;;5001348;28;19922;-65
2022/07/04 05:40:58;;;;;;;;;;;15.00;99.90;;;;;;5005022;28;19936;-65
2022/07/04 05:43:25;;;;;;;;;;;15.10;99.90;;;;;;5003252;28;19926;-65
2022/07/04 05:45:51;;;;;;;;;;;15.00;99.90;;;;;;5003201;28;19919;-65
2022/07/04 05:48:16;;;;;;;;;;;14.90;99.90;;;;;;5004891;28;19921;-65
2022/07/04 05:50:42;;;;;;;;;;;14.80;99.90;;;;;;4999911;28;20551;-64
2022/07/04 05:53:08;;;;;;;;;;;14.80;99.90;;;;;;5005726;28;19921;-65
2022/07/04 05:55:34;;;;;;;;;;;15.00;99.90;;;;;;5000921;28;19929;-65
2022/07/04 05:58:00;;;;;;;;;;;15.20;99.90;;;;;;5000250;28;19914;-65
2022/07/04 06:00:25;;;;;;;;;;;15.30;99.90;;;;;;5002348;28;20532;-64
2022/07/04 06:02:51;;;;;;;;;;;15.30;99.90;;;;;;4987754;28;19913;-65
2022/07/04 06:05:17;;;;;;;;;;;15.40;99.90;;;;;;5002898;28;19917;-65
2022/07/04 06:07:42;;;;;;;;;;;15.30;99.90;;;;;;5004085;28;20040;-64
2022/07/04 06:10:08;;;;;;;;;;;15.20;99.90;;;;;;5003602;28;19929;-64
2022/07/04 06:12:34;;;;;;;;;;;15.30;99.90;;;;;;4989776;28;19921;-65
2022/07/04 06:14:59;;;;;;;;;;;15.40;99.90;;;;;;5003636;28;19917;-67
2022/07/04 06:17:25;;;;;;;;;;;15.40;99.90;;;;;;5005170;28;20271;-66
2022/07/04 06:19:51;;;;;;;;;;;15.50;99.90;;;;;;5008987;28;19928;-64
2022/07/04 06:22:16;;;;;;;;;;;15.60;99.90;;;;;;5006215;28;19936;-65
2022/07/04 06:24:42;;;;;;;;;;;15.50;99.90;;;;;;5006097;28;19952;-64
2022/07/04 06:27:07;;;;;;;;;;;15.60;99.90;;;;;;5008376;28;19972;-63
2022/07/04 06:29:33;;;;;;;;;;;15.60;99.90;;;;;;5007161;28;19922;-65
2022/07/04 06:31:58;;;;;;;;;;;15.60;99.90;;;;;;5002495;28;20267;-64
2022/07/04 06:37:08;;;;;;;;;;;15.80;99.90;;;;;;5001293;28;19972;-65
2022/07/04 06:39:33;;;;;;;;;;;15.90;99.90;;;;;;5005937;28;19968;-65
2022/07/04 06:41:59;;;;;;;;;;;16.00;99.90;;;;;;5001523;28;19967;-64
2022/07/04 06:44:24;;;;;;;;;;;16.10;99.90;;;;;;5005146;28;20374;-65
2022/07/04 06:46:50;;;;;;;;;;;16.20;99.90;;;;;;5001092;28;20463;-68
2022/07/04 06:49:16;;;;;;;;;;;16.30;99.90;;;;;;4999010;28;20371;-65
2022/07/04 06:51:43;;;;;;;;;;;16.40;99.90;;;;;;4998200;28;19920;-65
2022/07/04 06:54:09;;;;;;;;;;;16.40;99.90;;;;;;4982799;28;19953;-64
2022/07/04 06:56:34;;;;;;;;;;;16.60;99.90;;;;;;5000118;28;19999;-64
2022/07/04 06:59:00;;;;;;;;;;;16.80;99.90;;;;;;4995206;28;20040;-65
2022/07/04 07:01:26;;;;;;;;;;;17.00;99.90;;;;;;4997125;28;19945;-64
2022/07/04 07:03:51;;;;;;;;;;;17.10;99.90;;;;;;5001061;28;19922;-65
2022/07/04 07:06:17;;;;;;;;;;;17.30;99.90;;;;;;4994749;28;19963;-65
2022/07/04 07:08:45;;;;;;;;;;;17.20;99.90;;;;;;4997835;28;19933;-66
2022/07/04 07:11:14;;;;;;;;;;;17.50;99.90;;;;;;4980456;28;19918;-64
2022/07/04 07:13:41;;;;;;;;;;;17.50;99.90;;;;;;4999103;28;19932;-64
2022/07/04 07:16:06;;;;;;;;;;;17.30;99.90;;;;;;4999645;28;19913;-66
2022/07/04 07:18:32;;;;;;;;;;;17.30;99.90;;;;;;5000434;28;19924;-66
2022/07/04 07:20:57;;;;;;;;;;;17.20;99.90;;;;;;5004524;28;19936;-65
2022/07/04 07:23:23;;;;;;;;;;;17.10;99.90;;;;;;5006721;28;19956;-65
2022/07/04 07:25:49;;;;;;;;;;;17.20;99.90;;;;;;5007340;28;19929;-65
2022/07/04 07:28:14;;;;;;;;;;;17.10;99.90;;;;;;5009968;28;19913;-65
2022/07/04 07:30:40;;;;;;;;;;;16.90;99.90;;;;;;5004768;28;19914;-65
2022/07/04 07:33:05;;;;;;;;;;;17.10;99.90;;;;;;4991027;28;19924;-65
2022/07/04 07:35:31;;;;;;;;;;;17.30;99.90;;;;;;4998770;28;19924;-66
2022/07/04 07:37:56;;;;;;;;;;;17.60;99.90;;;;;;5000648;28;19999;-67
2022/07/04 07:40:22;;;;;;;;;;;17.70;99.90;;;;;;5001122;28;19925;-66
2022/07/04 07:42:48;;;;;;;;;;;17.60;99.90;;;;;;5001508;28;20266;-67
2022/07/04 07:45:13;;;;;;;;;;;17.70;99.90;;;;;;4994650;28;20323;-67
2022/07/04 07:47:39;;;;;;;;;;;17.60;99.90;;;;;;5000466;28;19918;-65
2022/07/04 07:50:05;;;;;;;;;;;17.50;99.90;;;;;;4997923;28;19925;-66
2022/07/04 07:52:31;;;;;;;;;;;17.50;99.90;;;;;;5000743;28;19920;-67
2022/07/04 07:54:56;;;;;;;;;;;17.70;99.90;;;;;;4987336;28;19921;-66
2022/07/04 07:57:22;;;;;;;;;;;18.00;99.90;;;;;;5003411;28;20013;-66
2022/07/04 07:59:48;;;;;;;;;;;18.10;99.90;;;;;;5001380;28;20343;-66
2022/07/04 08:02:13;;;;;;;;;;;18.00;99.90;;;;;;5001119;28;20348;-66
2022/07/04 08:04:40;;;;;;;;;;;18.00;99.90;;;;;;5000325;28;19917;-65
2022/07/04 08:07:08;;;;;;;;;;;18.10;99.90;;;;;;5000798;28;20275;-65
2022/07/04 08:09:34;;;;;;;;;;;18.30;99.90;;;;;;4987235;28;20365;-66
2022/07/04 08:12:01;;;;;;;;;;;18.50;99.90;;;;;;5001720;28;19996;-66
2022/07/04 08:14:27;;;;;;;;;;;18.70;99.90;;;;;;5001862;28;19953;-64
2022/07/04 08:16:53;;;;;;;;;;;18.50;99.90;;;;;;4988941;28;20113;-66
2022/07/04 08:19:19;;;;;;;;;;;18.50;99.90;;;;;;5004776;28;19914;-65
2022/07/04 08:21:46;;;;;;;;;;;18.30;99.90;;;;;;4987890;28;19965;-66
2022/07/04 08:24:13;;;;;;;;;;;18.30;99.90;;;;;;5002030;28;19914;-67
2022/07/04 08:26:42;;;;;;;;;;;18.30;99.90;;;;;;4998613;28;20512;-68
2022/07/04 08:29:08;;;;;;;;;;;18.30;99.90;;;;;;5003668;28;20110;-66
2022/07/04 08:31:34;;;;;;;;;;;18.30;99.90;;;;;;4995980;28;19960;-65
2022/07/04 08:33:59;;;;;;;;;;;18.30;99.90;;;;;;5013719;28;20009;-65
2022/07/04 08:36:25;;;;;;;;;;;18.40;99.90;;;;;;5012441;28;19914;-65
2022/07/04 08:38:50;;;;;;;;;;;18.40;99.90;;;;;;5007305;28;19981;-65
2022/07/04 08:41:17;;;;;;;;;;;18.40;99.90;;;;;;5003344;28;19929;-64
2022/07/04 08:43:44;;;;;;;;;;;18.50;99.90;;;;;;5009286;28;19933;-65
2022/07/04 08:46:10;;;;;;;;;;;18.30;99.90;;;;;;5004940;28;19929;-65
2022/07/04 08:48:37;;;;;;;;;;;18.30;99.90;;;;;;5004842;28;20282;-66
2022/07/04 08:51:23;;;;;;;;;;;18.30;99.90;;;;;;5005185;28;20335;-66
2022/07/04 08:53:54;;;;;;;;;;;18.10;99.90;;;;;;5002586;28;19961;-66
2022/07/04 08:59:05;;;;;;;;;;;18.10;99.90;;;;;;5007558;28;20008;-66
2022/07/04 09:01:31;;;;;;;;;;;17.90;99.90;;;;;;4990374;28;19921;-66
2022/07/04 09:03:57;;;;;;;;;;;17.80;99.90;;;;;;5006897;28;19917;-67
2022/07/04 09:06:23;;;;;;;;;;;17.70;99.90;;;;;;5005943;28;20267;-67
2022/07/04 09:08:49;;;;;;;;;;;17.70;99.90;;;;;;5005176;28;19922;-67
2022/07/04 09:11:15;;;;;;;;;;;17.80;99.90;;;;;;5004040;28;19924;-67
2022/07/04 09:13:40;;;;;;;;;;;17.70;99.90;;;;;;5006169;28;19913;-65
2022/07/04 09:16:06;;;;;;;;;;;17.60;99.90;;;;;;4990584;28;19914;-65
2022/07/04 09:18:32;;;;;;;;;;;17.70;99.90;;;;;;5005987;28;19910;-65
2022/07/04 09:20:59;;;;;;;;;;;17.70;99.90;;;;;;5000650;28;19953;-65
2022/07/04 09:23:26;;;;;;;;;;;17.60;99.90;;;;;;5009992;28;19918;-66
2022/07/04 09:26:10;;;;;;;;;;;17.70;99.90;;;;;;5005706;28;19920;-65
2022/07/04 09:28:37;;;;;;;;;;;17.50;99.90;;;;;;5014976;28;19921;-65
2022/07/04 09:31:12;;;;;;;;;;;17.50;99.90;;;;;;5011818;28;19913;-65
2022/07/04 09:33:45;;;;;;;;;;;17.60;99.90;;;;;;5009438;28;19992;-65
2022/07/04 09:36:14;;;;;;;;;;;17.70;99.90;;;;;;5003860;28;20249;-65
2022/07/04 09:38:40;;;;;;;;;;;17.80;99.90;;;;;;5002114;28;19921;-65
2022/07/04 09:44:03;;;;;;;;;;;18.20;99.90;;;;;;5009627;28;19962;-65
2022/07/04 09:46:28;;;;;;;;;;;18.30;99.90;;;;;;5011434;28;19929;-65
2022/07/04 09:48:54;;;;;;;;;;;18.00;99.90;;;;;;5006432;28;19921;-65
2022/07/04 09:51:47;;;;;;;;;;;17.80;99.90;;;;;;5006938;28;19959;-66
2022/07/04 09:54:17;;;;;;;;;;;17.90;99.90;;;;;;5001252;28;19921;-66
2022/07/04 09:56:43;;;;;;;;;;;17.90;99.90;;;;;;5007194;28;19913;-65
2022/07/04 09:59:09;;;;;;;;;;;17.90;99.90;;;;;;5009197;28;20014;-65
2022/07/04 10:01:35;;;;;;;;;;;17.90;99.90;;;;;;5013280;28;20318;-65
2022/07/04 10:04:03;;;;;;;;;;;18.00;99.90;;;;;;5010014;28;19910;-65
2022/07/04 10:06:32;;;;;;;;;;;18.20;99.90;;;;;;5006077;28;19921;-66
2022/07/04 10:09:06;;;;;;;;;;;18.20;99.90;;;;;;5005049;28;19980;-66
2022/07/04 10:11:32;;;;;;;;;;;18.30;99.90;;;;;;5002437;28;20009;-66
2022/07/04 10:13:58;;;;;;;;;;;18.30;99.90;;;;;;5006756;28;20047;-66
2022/07/04 10:16:23;;;;;;;;;;;18.30;99.90;;;;;;5010119;28;19996;-65
2022/07/04 10:18:49;;;;;;;;;;;18.30;99.90;;;;;;5004471;28;19931;-66
2022/07/04 10:21:14;;;;;;;;;;;18.40;99.90;;;;;;5007916;28;19921;-65
2022/07/04 10:23:40;;;;;;;;;;;18.60;99.90;;;;;;5002051;28;19917;-66
2022/07/04 10:26:06;;;;;;;;;;;18.80;99.90;;;;;;5003217;28;19917;-66
2022/07/04 10:28:32;;;;;;;;;;;18.90;99.90;;;;;;4989241;28;19922;-65
2022/07/04 10:30:59;;;;;;;;;;;18.90;99.90;;;;;;5007283;28;20401;-66
2022/07/04 10:33:29;;;;;;;;;;;19.00;99.90;;;;;;5005586;28;19932;-66
2022/07/04 10:35:56;;;;;;;;;;;19.00;99.90;;;;;;5008935;28;19913;-66
2022/07/04 10:38:22;;;;;;;;;;;19.10;99.90;;;;;;4988019;28;20471;-67
2022/07/04 10:40:50;;;;;;;;;;;19.20;99.90;;;;;;5009076;28;20354;-65
2022/07/04 10:43:37;;;;;;;;;;;19.30;99.90;;;;;;5008962;28;20250;-66
2022/07/04 10:46:05;;;;;;;;;;;19.30;99.90;;;;;;5008323;28;19924;-65
2022/07/04 10:48:31;;;;;;;;;;;19.60;99.90;;;;;;5006842;28;20264;-70
2022/07/04 10:51:00;;;;;;;;;;;19.80;99.90;;;;;;5001353;28;20055;-66
2022/07/04 10:53:26;;;;;;;;;;;19.70;99.90;;;;;;5005325;28;20398;-67
2022/07/04 10:55:52;;;;;;;;;;;19.60;99.90;;;;;;5005370;28;19953;-66
2022/07/04 10:58:36;;;;;;;;;;;19.60;99.90;;;;;;5007059;28;19913;-66
2022/07/04 11:01:15;;;;;;;;;;;19.90;99.90;;;;;;4986475;28;20005;-67
2022/07/04 11:03:51;;;;;;;;;;;20.00;99.90;;;;;;5005685;28;19921;-65
2022/07/04 11:06:43;;;;;;;;;;;19.80;99.90;;;;;;5007851;28;19967;-65
2022/07/04 11:09:12;;;;;;;;;;;19.60;99.90;;;;;;5007454;28;20004;-65
2022/07/04 11:11:47;;;;;;;;;;;19.60;99.90;;;;;;5001971;28;19982;-65
2022/07/04 11:14:31;;;;;;;;;;;19.70;99.30;;;;;;5005743;28;20349;-65
2022/07/04 11:16:57;;;;;;;;;;;19.70;97.50;;;;;;5003905;28;20308;-65
2022/07/04 11:19:23;;;;;;;;;;;19.60;97.60;;;;;;5003577;28;19919;-65
2022/07/04 11:21:48;;;;;;;;;;;19.70;97.30;;;;;;5004915;28;20342;-64
2022/07/04 11:24:14;;;;;;;;;;;19.60;96.40;;;;;;4998492;28;19917;-65
2022/07/04 11:26:39;;;;;;;;;;;19.60;97.10;;;;;;5000318;28;19967;-66
2022/07/04 11:29:08;;;;;;;;;;;19.90;96.50;;;;;;5008612;28;19929;-66
2022/07/04 11:31:39;;;;;;;;;;;20.20;94.60;;;;;;4990974;28;23537;-66
2022/07/04 11:34:04;;;;;;;;;;;20.10;94.40;;;;;;5009113;28;20290;-67
2022/07/04 11:36:30;;;;;;;;;;;19.90;94.20;;;;;;4991729;28;19932;-65
2022/07/04 11:38:57;;;;;;;;;;;20.10;94.60;;;;;;4992861;28;19975;-67
2022/07/04 11:47:02;;;;;;;;;;;20.00;93.60;;;;;;5009783;28;19929;-65
2022/07/04 11:49:28;;;;;;;;;;;19.70;93.50;;;;;;5004413;28;19930;-67
2022/07/04 11:51:55;;;;;;;;;;;19.50;94.60;;;;;;5007884;28;19922;-67
2022/07/04 11:54:21;;;;;;;;;;;19.60;94.70;;;;;;5003802;28;19976;-65
2022/07/04 11:56:47;;;;;;;;;;;19.30;94.00;;;;;;5006830;28;20264;-65
2022/07/04 11:59:14;;;;;;;;;;;19.10;94.90;;;;;;5011764;28;19913;-66
2022/07/04 12:01:40;;;;;;;;;;;19.40;93.90;;;;;;5008567;28;20236;-66
2022/07/04 12:04:16;;;;;;;;;;;19.40;93.20;;;;;;5012936;28;19913;-66
2022/07/04 12:06:42;;;;;;;;;;;19.60;93.60;;;;;;4993927;28;20237;-64
2022/07/04 12:09:08;;;;;;;;;;;19.70;93.30;;;;;;5010753;28;19929;-64
2022/07/04 12:11:50;;;;;;;;;;;19.70;93.00;;;;;;5012043;28;19924;-65
2022/07/04 12:14:15;;;;;;;;;;;19.80;92.50;;;;;;5010520;28;19925;-67
2022/07/04 12:16:41;;;;;;;;;;;20.10;91.60;;;;;;5009862;28;20064;-66
2022/07/04 12:19:10;;;;;;;;;;;20.40;90.60;;;;;;5012068;28;19921;-67
2022/07/04 12:21:38;;;;;;;;;;;20.40;92.10;;;;;;4989929;28;19921;-66
2022/07/04 12:24:04;;;;;;;;;;;20.80;90.20;;;;;;5004621;28;19913;-65
2022/07/04 12:26:34;;;;;;;;;;;20.40;89.30;;;;;;5008156;28;19913;-65
2022/07/04 12:28:59;;;;;;;;;;;20.30;90.20;;;;;;5010063;28;19929;-67
2022/07/04 12:31:38;;;;;;;;;;;20.40;90.30;;;;;;5007234;28;20321;-65
2022/07/04 12:34:03;;;;;;;;;;;20.40;90.50;;;;;;5012275;28;19967;-66
2022/07/04 12:36:29;;;;;;;;;;;20.50;90.50;;;;;;5007519;28;20020;-67
2022/07/04 12:38:56;;;;;;;;;;;20.60;90.20;;;;;;5007239;28;19920;-66
2022/07/04 12:41:29;;;;;;;;;;;20.70;89.90;;;;;;5009782;28;19976;-66
2022/07/04 12:43:55;;;;;;;;;;;20.60;90.60;;;;;;5004705;28;19929;-66
2022/07/04 12:46:23;;;;;;;;;;;20.50;90.70;;;;;;5007981;28;19914;-67
2022/07/04 12:48:49;;;;;;;;;;;20.60;91.10;;;;;;5007111;28;19936;-68
2022/07/04 12:51:17;;;;;;;;;;;20.60;90.50;;;;;;4982350;28;20328;-66
2022/07/04 12:53:44;;;;;;;;;;;20.40;91.30;;;;;;5002078;28;19921;-67
2022/07/04 12:56:10;;;;;;;;;;;20.00;92.30;;;;;;4991822;28;19917;-66
2022/07/04 12:58:36;;;;;;;;;;;19.80;93.00;;;;;;4986514;28;19917;-67
2022/07/04 13:01:02;;;;;;;;;;;19.90;93.30;;;;;;5009439;28;19913;-66
2022/07/04 13:03:28;;;;;;;;;;;20.00;93.40;;;;;;4988875;28;19914;-66
2022/07/04 13:05:56;;;;;;;;;;;19.80;93.40;;;;;;4991893;28;19914;-65
2022/07/04 13:08:22;;;;;;;;;;;19.90;93.00;;;;;;5008771;28;19956;-65
2022/07/04 13:10:48;;;;;;;;;;;20.00;92.70;;;;;;5000978;28;20011;-64
2022/07/04 13:13:13;;;;;;;;;;;20.20;92.30;;;;;;5006198;28;19917;-65
2022/07/04 13:15:39;;;;;;;;;;;20.20;91.90;;;;;;4988037;28;19968;-66
2022/07/04 13:18:05;;;;;;;;;;;20.20;91.80;;;;;;5000760;28;19918;-67
2022/07/04 13:20:30;;;;;;;;;;;20.10;91.00;;;;;;5004573;28;19925;-65
2022/07/04 13:22:56;;;;;;;;;;;20.10;91.00;;;;;;5004328;28;19924;-65
2022/07/04 13:25:22;;;;;;;;;;;20.00;91.40;;;;;;5014379;28;20068;-66
2022/07/04 13:27:50;;;;;;;;;;;19.90;90.80;;;;;;5008347;28;19914;-66
2022/07/04 13:30:16;;;;;;;;;;;19.90;91.60;;;;;;5005686;28;20008;-66
2022/07/04 13:32:41;;;;;;;;;;;20.00;91.70;;;;;;5006150;28;20012;-66
2022/07/04 13:35:07;;;;;;;;;;;20.20;91.20;;;;;;5001709;28;19918;-66
2022/07/04 13:37:33;;;;;;;;;;;20.20;91.20;;;;;;5002006;28;19917;-66
2022/07/04 13:39:58;;;;;;;;;;;20.40;91.40;;;;;;5005723;28;20352;-68
2022/07/04 13:45:08;;;;;;;;;;;20.40;90.50;;;;;;5007996;28;19932;-67
2022/07/04 13:47:34;;;;;;;;;;;20.50;90.00;;;;;;5004709;28;19921;-66
2022/07/04 13:50:00;;;;;;;;;;;20.60;89.50;;;;;;5002677;28;19997;-67
2022/07/04 13:52:25;;;;;;;;;;;20.80;89.00;;;;;;5006695;28;20734;-66
2022/07/04 13:54:52;;;;;;;;;;;20.60;89.00;;;;;;5006812;28;20367;-66
2022/07/04 13:57:17;;;;;;;;;;;20.70;90.20;;;;;;5002180;28;19913;-66
2022/07/04 13:59:43;;;;;;;;;;;20.80;90.10;;;;;;5007267;28;19914;-66
2022/07/04 14:02:08;;;;;;;;;;;21.00;90.00;;;;;;4988878;28;20366;-67
2022/07/04 14:04:34;;;;;;;;;;;21.20;88.50;;;;;;5004413;28;19913;-66
2022/07/04 14:07:00;;;;;;;;;;;21.30;88.70;;;;;;5007013;28;19922;-66
2022/07/04 14:09:26;;;;;;;;;;;21.20;90.10;;;;;;5007843;28;19921;-66
2022/07/04 14:11:51;;;;;;;;;;;21.00;90.30;;;;;;5010091;28;19913;-68
2022/07/04 14:14:17;;;;;;;;;;;20.70;90.70;;;;;;5009017;28;19948;-67
2022/07/04 14:16:42;;;;;;;;;;;20.50;90.80;;;;;;5001716;28;19917;-66
2022/07/04 14:19:08;;;;;;;;;;;20.10;91.30;;;;;;5009744;28;20005;-67
2022/07/04 14:21:33;;;;;;;;;;;20.00;92.10;;;;;;5002517;28;19929;-67
2022/07/04 14:23:59;;;;;;;;;;;20.30;91.70;;;;;;5008546;28;19920;-66
2022/07/04 14:26:25;;;;;;;;;;;20.60;91.40;;;;;;5002536;28;20338;-67
2022/07/04 14:28:50;;;;;;;;;;;20.50;91.60;;;;;;5010053;28;19926;-66
2022/07/04 14:31:17;;;;;;;;;;;20.50;90.70;;;;;;5007322;28;19921;-66
2022/07/04 14:33:43;;;;;;;;;;;20.20;91.50;;;;;;5006204;28;19921;-66
2022/07/04 14:36:09;;;;;;;;;;;20.20;91.60;;;;;;5007055;28;19913;-67